• Join FlightAware (Why Join?)
  • Login
  • US Flag 
04:32AM EDT


 

Airport Tracker/Info


-or-


 

Live Flight TrackerFlight Track Log ✈ UAL4457 ✈ 19-Apr-2013 ✈ KLEX - KIAH

Flight Track Log - Related Links

Times and Time Zones

All times are in EDT time to prevent confusion due to time zone crossing. See the UAL4457 flight status page for this flight to view local times or setup timezone preferences in your user account.

Time Position Orientation Groundspeed Altitude Reporting Facility
EDT Latitude Longitude Course Direction KTS MPH feet Rate Location/Type
05:52PM 37.9697 -84.6753 219° Southwest 196 226 4,800  Level Indianapolis Center
05:53PM 37.9364 -84.7425 238° Southwest 222 255 7,300 2,880 Climbing Indianapolis Center
05:55PM 37.9028 -84.8300 244° Southwest 236 272 10,800 2,280 Climbing Indianapolis Center
05:56PM 37.8742 -84.9058 244° Southwest 241 277 12,100 1,200 Climbing Indianapolis Center
05:57PM 37.7220 -85.0980 231° Southwest  Level Estimated
05:57PM 37.8358 -84.9994 243° Southwest 285 328 13,400  Level Indianapolis Center
05:58PM 37.7986 -85.0961 244° Southwest 301 346 14,900 1,500 Climbing Indianapolis Center
05:59PM 37.7583 -85.1981 243° Southwest 316 364 16,500 1,680 Climbing Indianapolis Center
06:00PM 37.7128 -85.3125 243° Southwest 315 362 18,500 1,860 Climbing Indianapolis Center
06:01PM 37.6739 -85.4058 242° Southwest 308 354 20,400 1,800 Climbing Indianapolis Center
06:02PM 37.6397 -85.4939 244° Southwest 287 330 22,300 1,860 Climbing Indianapolis Center
06:03PM 37.6053 -85.5817 244° Southwest 269 310 24,300 1,860 Climbing Indianapolis Center
06:04PM 37.5728 -85.6619 243° Southwest 258 297 26,200 1,740 Climbing Indianapolis Center
06:05PM 37.5411 -85.7375 242° Southwest 247 284 27,900 1,500 Climbing Indianapolis Center
06:06PM 37.4928 -85.7917 222° Southwest 234 269 29,400 1,380 Climbing Indianapolis Center
06:07PM 37.4453 -85.8464 222° Southwest 233 268 30,800 1,200 Climbing Indianapolis Center
06:08PM 37.3931 -85.9097 224° Southwest 232 267 32,000 1,020 Climbing Indianapolis Center
06:09PM 37.3433 -85.9675 223° Southwest 239 275 33,000 960 Climbing Indianapolis Center
06:10PM 37.2931 -86.0256 223° Southwest 243 280 34,000 960 Climbing Indianapolis Center
06:11PM 37.2419 -86.0817 221° Southwest 242 278 35,000 780 Climbing Indianapolis Center
06:12PM 37.2053 -86.1525 237° Southwest 247 284 35,700 420 Climbing Indianapolis Center
06:13PM 37.1681 -86.2467 244° Southwest 255 293 36,000 120 Climbing Memphis Center
06:14PM 37.1353 -86.3342 245° Southwest 270 311 36,000  Level Memphis Center
06:15PM 37.0989 -86.4272 244° Southwest 290 334 36,000  Level Memphis Center
06:16PM 37.0583 -86.5331 244° Southwest 303 349 36,000  Level Memphis Center
06:17PM 37.0197 -86.6336 244° Southwest 319 367 36,000  Level Memphis Center
06:18PM 36.9772 -86.7422 244° Southwest 339 390 36,000  Level Memphis Center
06:19PM 36.9364 -86.8531 245° Southwest 344 396 36,000  Level Memphis Center
06:20PM 36.8936 -86.9614 244° Southwest 344 396 36,000  Level Memphis Center
06:21PM 36.8508 -87.0719 244° Southwest 344 396 36,000  Level Memphis Center
06:22PM 36.8078 -87.1800 244° Southwest 344 396 36,000  Level Memphis Center
06:23PM 36.7647 -87.2931 245° Southwest 344 396 36,000  Level Memphis Center
06:24PM 36.7194 -87.4008 242° Southwest 349 402 36,000  Level Memphis Center
06:25PM 36.6761 -87.5111 244° Southwest 349 402 36,000  Level Memphis Center
06:26PM 36.6331 -87.6264 245° Southwest 355 409 36,000  Level Memphis Center
06:27PM 36.5853 -87.7339 241° Southwest 355 409 36,000  Level Memphis Center
06:28PM 36.5417 -87.8464 244° Southwest 360 414 36,000  Level Memphis Center
06:29PM 36.5000 -87.9483 243° Southwest 365 420 36,000  Level Memphis Center
06:30PM 36.4561 -88.0581 244° Southwest 370 426 36,000  Level Memphis Center
06:31PM 36.4103 -88.1756 244° Southwest 358 412 36,000  Level Memphis Center
06:32PM 36.3664 -88.2822 243° Southwest 353 406 36,000  Level Memphis Center
06:33PM 36.3242 -88.3864 243° Southwest 348 400 36,000  Level Memphis Center
06:34PM 36.2819 -88.4903 243° Southwest 343 395 36,000  Level Memphis Center
06:35PM 36.2378 -88.5917 242° Southwest 343 395 36,000  Level Memphis Center
06:36PM 36.1933 -88.6983 243° Southwest 343 395 36,000  Level Memphis Center
06:37PM 36.1489 -88.8019 242° Southwest 343 395 36,000  Level Memphis Center
06:38PM 36.1042 -88.9106 243° Southwest 348 400 36,000  Level Memphis Center
06:39PM 36.0594 -89.0167 242° Southwest 348 400 36,000  Level Memphis Center
06:40PM 36.0147 -89.1228 243° Southwest 348 400 36,000  Level Memphis Center
06:41PM 35.9719 -89.2258 243° Southwest 348 400 36,000  Level Memphis Center
06:42PM 35.9122 -89.3217 232° Southwest 348 400 36,000  Level Memphis Center
06:43PM 35.8442 -89.4119 227° Southwest 353 406 36,000  Level Memphis Center
06:44PM 35.7844 -89.4922 227° Southwest 353 406 36,000  Level Memphis Center
06:45PM 35.7119 -89.5797 224° Southwest 365 420 36,000  Level Memphis Center
06:46PM 35.6417 -89.6800 229° Southwest 356 410 36,000  Level Memphis Center
06:47PM 35.5775 -89.7622 226° Southwest 362 417 36,000  Level Memphis Center
06:48PM 35.5069 -89.8547 227° Southwest 368 423 36,000  Level Memphis Center
06:49PM 35.4364 -89.9417 225° Southwest 373 429 36,000  Level Memphis Center
06:51PM 35.3472 -90.0498 225° Southwest  Level FlightAware Approximate
06:51PM 35.2928 -90.1231 225° Southwest 373 429 36,000  Level Memphis Center
06:52PM 35.2242 -90.2097 226° Southwest 367 422 36,000  Level Memphis Center
06:53PM 35.1514 -90.3011 226° Southwest 367 422 36,000  Level Memphis Center
06:54PM 35.0803 -90.3900 226° Southwest 372 428 36,000  Level Memphis Center
06:55PM 35.0094 -90.4789 226° Southwest 372 428 36,000  Level Memphis Center
06:56PM 34.9364 -90.5672 225° Southwest 372 428 36,000  Level Memphis Center
06:57PM 34.8653 -90.6558 226° Southwest 372 428 36,000  Level Memphis Center
06:58PM 34.7878 -90.7517 225° Southwest 367 422 36,000  Level Memphis Center
06:59PM 34.7164 -90.8397 225° Southwest 367 422 36,000  Level Memphis Center
07:00PM 34.6431 -90.9275 225° Southwest 373 429 36,000  Level Memphis Center
07:01PM 34.5717 -91.0156 225° Southwest 373 429 36,000  Level Memphis Center
07:02PM 34.4981 -91.1031 224° Southwest 373 429 36,000  Level Memphis Center
07:03PM 34.4244 -91.1931 225° Southwest 373 429 36,000  Level Memphis Center
07:04PM 34.3531 -91.2806 225° Southwest 373 429 36,000  Level Memphis Center
07:05PM 34.2814 -91.3678 225° Southwest 368 423 36,000  Level Memphis Center
07:06PM 34.2075 -91.4572 225° Southwest 374 430 36,000  Level Memphis Center
07:07PM 34.1358 -91.5442 225° Southwest 369 425 36,000  Level Memphis Center
07:09PM 34.0400 -91.6717 228° Southwest 353 406 36,000  Level Fort Worth Center
07:10PM 33.9644 -91.7567 223° Southwest 359 413 36,000  Level Fort Worth Center
07:11PM 33.8889 -91.8417 223° Southwest 371 427 36,000  Level Fort Worth Center
07:12PM 33.8178 -91.9286 225° Southwest 376 433 36,000  Level Fort Worth Center
07:13PM 33.7461 -92.0131 224° Southwest 370 426 36,000  Level Fort Worth Center
07:14PM 33.6728 -92.1000 225° Southwest 370 426 36,000  Level Fort Worth Center
07:15PM 33.5950 -92.1844 222° Southwest 370 426 36,000  Level Fort Worth Center
07:16PM 33.4922 -92.2256 198° South 370 426 36,000  Level Fort Worth Center
07:17PM 33.3869 -92.2539 193° South 389 448 36,000  Level Fort Worth Center
07:18PM 33.2758 -92.2878 194° South 394 453 36,000  Level Fort Worth Center
07:19PM 33.1706 -92.3189 194° South 401 461 36,000  Level Fort Worth Center
07:20PM 33.0633 -92.3497 194° South 401 461 36,000  Level Fort Worth Center
07:21PM 32.9561 -92.3831 195° South 401 461 36,000  Level Fort Worth Center
07:22PM 32.8531 -92.4136 194° South 396 456 36,000  Level Fort Worth Center
07:23PM 32.7436 -92.4467 194° South 396 456 36,000  Level Fort Worth Center
07:24PM 32.6364 -92.4750 193° South 396 456 36,000  Level Fort Worth Center
07:25PM 32.5311 -92.5078 195° South 396 456 36,000  Level Fort Worth Center
07:27PM 32.3344 -92.5681 195° South 397 457 36,000  Level Houston Center
07:28PM 32.2275 -92.6014 195° South 398 458 36,000  Level Houston Center
07:29PM 32.1194 -92.6331 194° South 399 459 36,000 -60 Level Houston Center
07:30PM 31.9903 -92.6719 194° South 397 457 35,900  Descending Houston Center
07:31PM 31.9061 -92.7383 214° Southwest 368 423 36,000  Climbing Houston Center
07:32PM 31.8292 -92.8139 220° Southwest 363 418 36,000  Level Houston Center
07:33PM 31.7514 -92.8892 219° Southwest 362 417 36,000  Level Houston Center
07:34PM 31.6747 -92.9669 221° Southwest 363 418 36,000  Level Houston Center
07:35PM 31.5967 -93.0403 219° Southwest 361 415 36,000  Level Houston Center
07:36PM 31.5039 -93.1308 220° Southwest 361 415 36,000  Level Houston Center
07:37PM 31.4269 -93.2044 219° Southwest 359 413 36,000  Level Houston Center
07:38PM 31.3550 -93.2750 220° Southwest 346 398 36,000 -240 Level Houston Center
07:39PM 31.2708 -93.3539 219° Southwest 340 391 35,600 -600 Descending Houston Center
07:40PM 31.2069 -93.4133 219° Southwest 343 395 34,800 -1,080 Descending Houston Center
07:41PM 31.1183 -93.4992 220° Southwest 346 398 33,400 -1,440 Descending Houston Center
07:42PM 31.0431 -93.5694 219° Southwest 347 399 31,900 -1,500 Descending Houston Center
07:43PM 30.9689 -93.6392 219° Southwest 344 396 30,400 -1,560 Descending Houston Center
07:44PM 30.8925 -93.7125 219° Southwest 355 409 28,700 -1,620 Descending Houston Center
07:45PM 30.8183 -93.7811 218° Southwest 346 398 27,100 -1,920 Descending Houston Center
07:46PM 30.7311 -93.8656 220° Southwest 342 394 24,800 -2,040 Descending Houston Center
07:47PM 30.6569 -93.9347 219° Southwest 345 397 22,900 -1,920 Descending Houston Center
07:48PM 30.6036 -93.9831 218° Southwest 340 391 21,500 -1,980 Descending Houston Center
07:48PM 30.5836 -94.0031 221° Southwest 341 392 20,900 -2,100 Descending Houston Center
07:49PM 30.5328 -94.0511 219° Southwest 343 395 19,600 -1,860 Descending Houston Center
07:49PM 30.5083 -94.0731 218° Southwest 347 399 19,000 -1,920 Descending Houston Center
07:50PM 30.4597 -94.1192 219° Southwest 345 397 17,700 -1,560 Descending Houston Center
07:50PM 30.4372 -94.1403 219° Southwest 334 384 17,400 -1,440 Descending Houston Center
07:51PM 30.3925 -94.1814 218° Southwest 324 373 16,400 -1,860 Descending Houston Center
07:51PM 30.3528 -94.2192 219° Southwest 327 376 15,500 -1,560 Descending Houston Center
07:52PM 30.3114 -94.2553 217° Southwest 325 374 14,700 -1,260 Descending Houston Center
07:52PM 30.2822 -94.2831 219° Southwest 325 374 14,200 -1,320 Descending Houston Center
07:53PM 30.2500 -94.3142 220° Southwest 278 320 13,400 -1,740 Descending Houston Center
07:53PM 30.2222 -94.3406 219° Southwest 288 331 12,400 -1,380 Descending Houston Center
07:54PM 30.1914 -94.3800 228° Southwest 277 319 12,000 -720 Descending Houston Center
07:55PM 30.1800 -94.4106 247° West 271 312 11,700 -1,260 Descending Houston Center
07:55PM 30.1600 -94.4661 247° West 261 300 10,600 -1,800 Descending Houston Center
07:56PM 30.1486 -94.4950 245° Southwest 268 308 9,900 -1,920 Descending Houston Center
07:56PM 30.1264 -94.5528 246° West 282 325 8,700 -1,560 Descending Houston Center
07:57PM 30.1186 -94.5783 251° West 279 321 8,300 -780 Descending Houston Center
07:57PM 30.0997 -94.6239 244° Southwest 277 319 8,000 -300 Descending Houston Center
07:58PM 30.0883 -94.6594 250° West 276 318 8,000  Level Houston Center
07:58PM 30.0664 -94.7150 245° Southwest 274 315 8,000  Level Houston Center
07:59PM 30.0589 -94.7403 251° West 275 316 8,000  Level Houston Center
07:59PM 30.0378 -94.7889 243° Southwest 273 314 8,000  Level Houston Center
08:00PM 30.0231 -94.8356 250° West 272 313 8,000  Level Houston Center
08:00PM 30.0114 -94.8644 245° Southwest 254 292 8,000 -600 Level Houston Center
08:01PM 29.9969 -94.9008 245° Southwest 228 262 7,400 -1,020 Descending Houston Center
08:01PM 29.9889 -94.9350 255° West 214 246 7,000 -1,020 Descending Houston Center
08:02PM 29.9936 -94.9708 279° West 226 260 6,400 -1,200 Descending Houston Center
08:02PM 29.9933 -95.0067 269° West 226 260 5,800 -1,260 Descending Houston Center
08:03PM 29.9939 -95.0408 271° West 222 255 5,100 -1,260 Descending Houston Center
08:03PM 29.9917 -95.0769 266° West 217 250 4,500 -780 Descending Houston Center
08:04PM 29.9928 -95.1061 273° West 208 239 4,300 -900 Descending Houston Center
08:04PM 29.9928 -95.1347 270° West 169 194 3,600 -1,500 Descending Houston Center
08:05PM 29.9936 -95.1711 272° West 177 204 2,800 -1,200 Descending Houston Center
08:05PM 29.9944 -95.1972 272° West 167 192 2,300 -1,080 Descending Houston Center